首页
METAR-TAF:

METAR-TAF

机场 :

果阿國際機場

帕纳吉, 印度

纬度: 15-22-51N, 经度: 073-49-53E, 海拔: 56米

当前天气观测

该预报发布于1小时和48分钟前的20:00 UTC
风速9节,风向西转西南
温度 26°C
湿度 84%
气压 1004 hPa
能見度: 5000
少量云层高于1000英尺
散云层高于1500英尺
多云层高于7000英尺
轻雾

METAR: VOGO 222000Z 25009KT 5000 BR FEW010 SCT015 BKN070 26/23 Q1004 TEMPO -RA

时间: 03:18 (21:48 UTC)

预报

该预报发布于4小时和48分钟前的17:00 UTC
预报有效从22日的 18点(UTC)到 23日的 03点(UTC)
风速8节,风向
能見度: 5000
少量云层高于800英尺
散云层高于1500英尺
多云层高于7000英尺
轻雾
短暂存在
从 22日的 21点(UTC)到 22日的 23点(UTC)
风速10节,风向东转东南,有时为20节阵风
能見度: 2000
少量云层高于600英尺
散云层高于1200英尺
阴天层高于6000英尺
短暂存在
从 23日的 01点(UTC)到 23日的 03点(UTC)
能見度: 2000
少量云层高于400英尺
散云层高于1000英尺
阴天层高于6000英尺
大雨,

TAF: VOGO 221700Z 2218/2303 18008KT 5000 BR FEW008 SCT015 BKN070 TEMPO 2221/2223 11010G20KT 2000 RA FEW006 SCT012 OVC060 TEMPO 2301/2303 2000 +RA FEW004 SCT010 OVC060

超过4000个机场的气象观测和天气预报(METAR&TAF报告)。

可查询的气象台以黄色和红色小点在地图上表示。

将鼠标移到小点上方,可查看气象台名称。

然后点击查看天气观测和预报。

如需切换地图:点击带黑十字的绿色按钮放大地图;点击带横线的绿色按钮缩小地图;或者点击绿色箭头查看邻近地区的地图。


METAR-TAF: